createdAt,value
2023-01-07T00:02:09.955Z,5.27
2023-01-07T00:04:39.174Z,5.26
2023-01-07T00:07:09.949Z,5.14
2023-01-07T00:09:40.838Z,5.14
2023-01-07T00:12:11.517Z,5.18
2023-01-07T00:14:40.573Z,5.10
2023-01-07T00:17:09.993Z,5.16
2023-01-07T00:19:39.056Z,5.10
2023-01-07T00:22:08.400Z,5.08
2023-01-07T00:24:37.599Z,5.10
2023-01-07T00:27:07.159Z,4.90
2023-01-07T00:29:37.680Z,4.98
2023-01-07T00:32:07.365Z,5.04
2023-01-07T00:34:39.089Z,5.19
2023-01-07T00:37:26.001Z,5.01
2023-01-07T00:39:55.170Z,5.00
2023-01-07T00:42:42.183Z,5.09
2023-01-07T00:45:13.427Z,5.18
2023-01-07T00:47:42.826Z,5.27
2023-01-07T00:50:12.060Z,5.38
2023-01-07T00:52:41.547Z,5.81
2023-01-07T00:55:11.810Z,5.69
2023-01-07T00:57:41.360Z,5.86
2023-01-07T01:00:14.792Z,5.94
2023-01-07T01:02:44.771Z,6.22
2023-01-07T01:05:14.067Z,6.43
2023-01-07T01:07:44.223Z,6.39
2023-01-07T01:10:15.661Z,6.47
2023-01-07T01:12:46.012Z,6.26
2023-01-07T01:15:18.094Z,6.07
2023-01-07T01:17:47.430Z,5.96
2023-01-07T01:20:17.668Z,6.04
2023-01-07T01:22:47.392Z,5.92
2023-01-07T01:25:16.878Z,5.75
2023-01-07T01:27:46.300Z,5.75
2023-01-07T01:30:16.874Z,5.73
2023-01-07T01:32:46.886Z,5.63
2023-01-07T01:35:17.046Z,5.85
2023-01-07T01:37:46.582Z,5.43
2023-01-07T01:40:15.943Z,5.51
2023-01-07T01:42:45.464Z,5.47
2023-01-07T01:45:20.595Z,5.42
2023-01-07T01:47:54.872Z,5.24
2023-01-07T01:50:30.067Z,5.07
2023-01-07T01:53:05.455Z,5.03
2023-01-07T01:55:39.878Z,5.04
2023-01-07T01:58:14.789Z,5.15
2023-01-07T02:00:45.597Z,5.11
2023-01-07T02:03:19.210Z,5.01
2023-01-07T02:05:50.102Z,5.03
2023-01-07T02:08:22.237Z,4.98
2023-01-07T02:11:06.206Z,4.99
2023-01-07T02:13:48.103Z,4.82
2023-01-07T02:16:25.360Z,4.76
2023-01-07T02:19:17.003Z,4.73
2023-01-07T02:21:54.199Z,4.57
2023-01-07T02:24:55.679Z,4.88
2023-01-07T02:27:51.058Z,4.95
2023-01-07T02:30:48.152Z,5.23
2023-01-07T02:33:42.084Z,5.29
2023-01-07T02:36:28.086Z,5.43
2023-01-07T02:39:23.793Z,5.45
2023-01-07T02:41:58.890Z,5.29
2023-01-07T02:44:39.291Z,5.41
2023-01-07T02:47:15.886Z,5.40
2023-01-07T02:49:48.588Z,5.25
2023-01-07T02:52:21.633Z,5.28
2023-01-07T02:54:54.647Z,5.27
2023-01-07T02:58:01.105Z,4.93
2023-01-07T03:00:57.947Z,4.90
2023-01-07T03:03:42.411Z,4.87
2023-01-07T03:06:27.921Z,4.89
2023-01-07T03:09:05.870Z,5.13
2023-01-07T03:11:42.986Z,5.21
2023-01-07T03:14:19.347Z,5.09
2023-01-07T03:16:56.321Z,5.13
2023-01-07T03:19:31.895Z,5.11
2023-01-07T03:22:06.642Z,5.05
2023-01-07T03:24:36.565Z,5.07
2023-01-07T03:27:07.449Z,5.16
2023-01-07T03:29:37.043Z,5.19
2023-01-07T03:36:57.299Z,5.35
2023-01-07T03:39:32.879Z,5.47
2023-01-07T03:42:23.099Z,5.49
2023-01-07T03:44:52.278Z,5.39
2023-01-07T03:47:24.393Z,5.25
2023-01-07T03:49:53.470Z,5.20
2023-01-07T03:52:23.086Z,5.24
2023-01-07T03:54:53.519Z,5.19
2023-01-07T03:57:22.873Z,5.09
2023-01-07T03:59:52.004Z,5.11
2023-01-07T04:02:21.378Z,5.17
2023-01-07T04:04:50.770Z,5.20
2023-01-07T04:07:21.023Z,5.13
2023-01-07T04:09:50.874Z,5.03
2023-01-07T04:12:21.852Z,5.09
2023-01-07T04:14:51.011Z,5.15
2023-01-07T04:17:20.590Z,5.11
2023-01-07T04:19:49.843Z,5.11
2023-01-07T04:22:19.315Z,5.16
2023-01-07T04:24:48.892Z,5.20
2023-01-07T04:27:21.078Z,5.07
2023-01-07T04:29:50.724Z,5.00
2023-01-07T04:32:20.087Z,5.04
2023-01-07T04:34:49.210Z,5.06
2023-01-07T04:37:18.960Z,5.08
2023-01-07T04:39:48.156Z,5.13
2023-01-07T04:42:17.646Z,5.16
2023-01-07T04:44:48.278Z,5.08
2023-01-07T04:47:17.732Z,5.02
2023-01-07T04:49:47.493Z,4.92
2023-01-07T04:52:16.919Z,5.11
2023-01-07T04:54:46.076Z,5.24
2023-01-07T04:57:15.748Z,5.10
2023-01-07T04:59:48.393Z,5.16
2023-01-07T05:02:18.317Z,5.20
2023-01-07T05:04:48.591Z,5.11
2023-01-07T05:07:20.115Z,5.16
2023-01-07T05:09:50.235Z,5.07
2023-01-07T05:12:20.786Z,5.20
2023-01-07T05:14:51.539Z,5.16
2023-01-07T05:17:21.352Z,5.03
2023-01-07T05:19:50.465Z,4.98
2023-01-07T05:22:19.951Z,4.74
2023-01-07T05:24:49.180Z,4.73
2023-01-07T05:27:19.970Z,4.71
2023-01-07T05:29:50.646Z,4.64
2023-01-07T05:32:20.312Z,4.60
2023-01-07T05:34:50.423Z,4.54
2023-01-07T05:37:20.523Z,4.53
2023-01-07T05:39:50.247Z,4.45
2023-01-07T05:42:21.805Z,4.36
2023-01-07T05:44:53.326Z,4.36
2023-01-07T05:47:22.730Z,4.35
2023-01-07T05:49:51.821Z,4.41
2023-01-07T05:52:21.251Z,4.46
2023-01-07T05:54:50.379Z,4.41
2023-01-07T05:57:19.701Z,4.21
2023-01-07T05:59:49.001Z,4.28
2023-01-07T06:02:19.728Z,4.36
2023-01-07T06:04:48.895Z,4.32
2023-01-07T06:07:18.575Z,4.35
2023-01-07T06:09:47.628Z,4.42
2023-01-07T06:12:17.037Z,4.39
2023-01-07T06:14:46.095Z,4.41
2023-01-07T06:17:15.524Z,4.13
2023-01-07T06:19:46.015Z,4.32
2023-01-07T06:22:16.313Z,4.33
2023-01-07T06:24:45.489Z,4.30
2023-01-07T06:27:14.945Z,4.32
2023-01-07T06:29:44.221Z,4.36
2023-01-07T06:32:13.671Z,4.15
2023-01-07T06:34:42.716Z,4.21
2023-01-07T06:37:14.942Z,4.21
2023-01-07T06:39:44.045Z,4.31
2023-01-07T06:42:13.473Z,4.23
2023-01-07T06:44:42.542Z,4.18
2023-01-07T06:47:11.886Z,4.18
2023-01-07T06:49:40.929Z,4.22
2023-01-07T06:52:10.365Z,4.19
2023-01-07T06:54:40.877Z,4.24
2023-01-07T06:57:10.260Z,4.16
2023-01-07T06:59:39.457Z,3.99
2023-01-07T07:02:08.974Z,4.00
2023-01-07T07:04:38.201Z,4.16
2023-01-07T07:07:07.676Z,4.25
2023-01-07T07:09:36.839Z,4.43
2023-01-07T07:12:08.666Z,4.29
2023-01-07T07:14:37.925Z,4.41
2023-01-07T07:17:07.869Z,4.46
2023-01-07T07:19:36.970Z,4.46
2023-01-07T07:22:06.328Z,4.38
2023-01-07T07:24:35.385Z,4.51
2023-01-07T07:27:06.368Z,4.71
2023-01-07T07:29:35.481Z,4.57
2023-01-07T07:32:05.008Z,4.66
2023-01-07T07:34:35.949Z,4.77
2023-01-07T07:37:05.475Z,4.84
2023-01-07T07:39:34.801Z,5.11
2023-01-07T07:42:06.295Z,5.27
2023-01-07T07:44:35.367Z,5.05
2023-01-07T07:47:04.781Z,5.22
2023-01-07T07:49:34.197Z,5.45
2023-01-07T07:52:03.562Z,5.53
2023-01-07T07:54:32.724Z,5.56
2023-01-07T07:57:03.863Z,5.71
2023-01-07T07:59:34.508Z,5.74
2023-01-07T08:02:04.254Z,5.83
2023-01-07T08:04:35.240Z,5.91
2023-01-07T08:07:04.972Z,5.73
2023-01-07T08:09:34.420Z,5.73
2023-01-07T08:12:04.110Z,5.73
2023-01-07T08:14:34.985Z,5.77
2023-01-07T08:17:04.491Z,5.69
2023-01-07T08:19:33.574Z,5.73
2023-01-07T08:22:02.952Z,5.75
2023-01-07T08:24:32.081Z,5.87
2023-01-07T08:27:02.749Z,5.83
2023-01-07T08:29:33.377Z,5.86
2023-01-07T08:32:02.720Z,5.56
2023-01-07T08:34:31.795Z,5.45
2023-01-07T08:37:01.231Z,5.41
2023-01-07T08:39:30.308Z,5.53
2023-01-07T08:41:59.705Z,5.71
2023-01-07T08:44:28.757Z,5.81
2023-01-07T08:46:59.644Z,5.78
2023-01-07T08:49:28.774Z,5.34
2023-01-07T08:51:58.138Z,5.50
2023-01-07T08:54:27.312Z,5.67
2023-01-07T08:56:56.746Z,5.65
2023-01-07T08:59:25.803Z,5.75
2023-01-07T09:01:55.432Z,6.09
2023-01-07T09:04:26.075Z,6.28
2023-01-07T09:06:55.591Z,6.28
2023-01-07T09:09:24.701Z,6.40
2023-01-07T09:11:54.023Z,6.44
2023-01-07T09:14:23.090Z,6.57
2023-01-07T09:16:52.659Z,6.69
2023-01-07T09:19:21.779Z,6.78
2023-01-07T09:21:52.532Z,6.53
2023-01-07T09:24:21.569Z,6.71
2023-01-07T09:26:50.963Z,6.90
2023-01-07T09:29:20.156Z,7.33
2023-01-07T09:31:49.719Z,7.59
2023-01-07T09:34:18.967Z,7.44
2023-01-07T09:36:48.322Z,7.66
2023-01-07T09:39:18.937Z,8.11
2023-01-07T09:42:06.568Z,8.19
2023-01-07T09:44:52.794Z,8.47
2023-01-07T09:47:26.422Z,8.27
2023-01-07T09:49:58.782Z,8.40
2023-01-07T09:52:32.271Z,9.12
2023-01-07T09:55:07.669Z,9.65
2023-01-07T09:57:37.156Z,10.36
2023-01-07T10:00:16.329Z,10.49
2023-01-07T10:02:57.537Z,11.07
2023-01-07T10:05:35.409Z,10.63
2023-01-07T10:08:29.423Z,9.98
2023-01-07T10:11:15.409Z,9.61
2023-01-07T10:14:04.032Z,8.93
2023-01-07T10:16:41.274Z,9.01
2023-01-07T10:19:20.022Z,8.87
2023-01-07T10:21:56.078Z,9.13
2023-01-07T10:24:29.800Z,9.02
2023-01-07T10:27:05.150Z,8.76
2023-01-07T10:29:39.061Z,8.95
2023-01-07T10:32:15.630Z,8.93
2023-01-07T10:34:47.666Z,9.03
2023-01-07T10:37:26.216Z,9.28
2023-01-07T10:40:05.505Z,9.43
2023-01-07T10:42:41.954Z,9.56
2023-01-07T10:45:38.438Z,9.56
2023-01-07T10:48:28.315Z,9.50
2023-01-07T10:51:12.027Z,9.14
2023-01-07T10:53:54.869Z,8.89
2023-01-07T10:56:30.621Z,8.59
2023-01-07T10:59:01.317Z,8.52
2023-01-07T11:01:35.463Z,8.52
2023-01-07T11:04:05.932Z,8.56
2023-01-07T11:06:45.333Z,8.65
2023-01-07T11:09:19.872Z,8.73
2023-01-07T11:11:51.427Z,8.78
2023-01-07T11:14:26.871Z,8.82
2023-01-07T11:16:58.552Z,8.85
2023-01-07T11:19:44.140Z,8.50
2023-01-07T11:22:31.886Z,8.57
2023-01-07T11:25:02.292Z,8.59
2023-01-07T11:27:35.105Z,8.48
2023-01-07T11:30:10.845Z,8.34
2023-01-07T11:32:42.742Z,8.66
2023-01-07T11:35:22.984Z,9.03
2023-01-07T11:37:52.650Z,9.12
2023-01-07T11:40:28.531Z,8.97
2023-01-07T11:42:59.942Z,9.10
2023-01-07T11:45:33.146Z,8.98
2023-01-07T11:48:08.468Z,9.22
2023-01-07T11:50:41.187Z,9.36
2023-01-07T11:53:29.149Z,9.63
2023-01-07T11:56:00.993Z,9.72
2023-01-07T11:58:33.473Z,10.04
2023-01-07T12:01:18.380Z,9.65
2023-01-07T12:04:12.875Z,9.75
2023-01-07T12:06:45.575Z,9.87
2023-01-07T12:09:43.658Z,10.63
2023-01-07T12:12:37.092Z,11.08
2023-01-07T12:15:19.305Z,11.63
2023-01-07T12:17:54.392Z,11.95
2023-01-07T12:20:37.139Z,11.42
2023-01-07T12:23:18.593Z,11.12
2023-01-07T12:25:58.845Z,10.88
2023-01-07T12:28:41.618Z,10.78
2023-01-07T12:31:27.597Z,11.04
2023-01-07T12:34:09.849Z,11.21
2023-01-07T12:36:45.762Z,11.57
2023-01-07T12:39:23.480Z,12.27
2023-01-07T12:42:00.710Z,13.13
2023-01-07T12:44:29.960Z,14.78
2023-01-07T12:47:32.010Z,15.42
2023-01-07T12:50:04.254Z,15.16
2023-01-07T12:52:41.532Z,15.67
2023-01-07T12:55:18.786Z,15.90
2023-01-07T12:57:59.972Z,15.95
2023-01-07T13:00:32.688Z,15.65
2023-01-07T13:03:07.990Z,15.70
2023-01-07T13:05:43.941Z,16.06
2023-01-07T13:08:19.821Z,15.75
2023-01-07T13:10:54.649Z,14.90
2023-01-07T13:13:28.170Z,14.29
2023-01-07T13:15:57.840Z,13.06
2023-01-07T13:18:27.288Z,12.96
2023-01-07T13:21:08.103Z,13.11
2023-01-07T13:24:07.742Z,12.63
2023-01-07T13:26:49.151Z,12.72
2023-01-07T13:29:30.870Z,12.17
2023-01-07T13:32:18.657Z,12.15
2023-01-07T13:35:03.613Z,11.54
2023-01-07T13:37:58.550Z,11.53
2023-01-07T13:40:41.952Z,11.09
2023-01-07T13:43:27.492Z,10.59
2023-01-07T13:46:01.080Z,10.22
2023-01-07T13:48:31.007Z,10.03
2023-01-07T13:51:03.151Z,9.38
2023-01-07T13:53:46.964Z,8.88
2023-01-07T13:56:37.470Z,8.24
2023-01-07T13:59:21.960Z,7.95
2023-01-07T14:02:17.151Z,7.64
2023-01-07T14:05:04.223Z,7.04
2023-01-07T14:07:45.056Z,6.86
2023-01-07T14:10:26.986Z,6.96
2023-01-07T14:13:25.933Z,6.73
2023-01-07T14:16:06.781Z,6.46
2023-01-07T14:19:02.974Z,6.34
2023-01-07T14:21:56.673Z,6.14
2023-01-07T14:25:05.525Z,5.91
2023-01-07T14:27:55.172Z,5.87
2023-01-07T14:30:28.962Z,5.58
2023-01-07T14:33:01.175Z,5.41
2023-01-07T14:35:35.215Z,5.36
2023-01-07T14:38:33.129Z,5.11
2023-01-07T14:41:09.688Z,5.01
2023-01-07T14:44:03.836Z,4.96
2023-01-07T14:46:50.835Z,4.74
2023-01-07T14:50:01.590Z,4.67
2023-01-07T14:53:10.053Z,4.57
2023-01-07T14:56:17.263Z,4.58
2023-01-07T14:59:04.233Z,4.39
2023-01-07T15:02:01.739Z,4.16
2023-01-07T15:05:06.263Z,3.82
2023-01-07T15:07:39.742Z,3.94
2023-01-07T15:10:38.745Z,4.00
2023-01-07T15:13:31.039Z,3.98
2023-01-07T15:16:06.291Z,3.93
2023-01-07T15:18:50.440Z,3.97
2023-01-07T15:21:31.239Z,4.08
2023-01-07T15:24:10.419Z,4.22
2023-01-07T15:26:46.483Z,4.43
2023-01-07T15:29:19.876Z,4.43
2023-01-07T15:32:00.794Z,4.62
2023-01-07T15:34:33.420Z,4.55
2023-01-07T15:37:06.704Z,4.68
2023-01-07T15:39:40.318Z,4.82
2023-01-07T15:42:17.201Z,4.68
2023-01-07T15:44:49.171Z,4.46
2023-01-07T15:47:41.045Z,4.60
2023-01-07T15:50:32.033Z,4.77
2023-01-07T15:53:03.870Z,4.70
2023-01-07T15:55:37.711Z,4.77
2023-01-07T15:58:13.195Z,4.87
2023-01-07T16:00:43.105Z,5.14
2023-01-07T16:03:18.552Z,5.21
2023-01-07T16:05:48.185Z,5.25
2023-01-07T16:08:20.812Z,5.20
2023-01-07T16:11:01.183Z,5.34
2023-01-07T16:13:31.455Z,5.25
2023-01-07T16:16:03.605Z,5.28
2023-01-07T16:18:34.712Z,5.04
2023-01-07T16:21:07.537Z,5.24
2023-01-07T16:23:38.888Z,5.35
2023-01-07T16:26:10.605Z,5.20
2023-01-07T16:28:45.112Z,5.18
2023-01-07T16:31:16.978Z,5.30
2023-01-07T16:33:49.400Z,5.26
2023-01-07T16:36:21.844Z,5.32
2023-01-07T16:38:53.871Z,5.32
2023-01-07T16:41:24.881Z,5.45
2023-01-07T16:43:57.279Z,5.51
2023-01-07T16:46:29.394Z,5.49
2023-01-07T16:49:22.884Z,5.53
2023-01-07T16:51:54.163Z,5.40
2023-01-07T16:54:28.833Z,5.68
2023-01-07T16:56:59.878Z,5.55
2023-01-07T16:59:32.434Z,5.74
2023-01-07T17:02:11.983Z,5.65
2023-01-07T17:04:43.126Z,5.43
2023-01-07T17:07:23.032Z,5.63
2023-01-07T17:09:55.345Z,5.59
2023-01-07T17:12:36.131Z,5.60
2023-01-07T17:15:36.607Z,5.70
2023-01-07T17:18:27.199Z,5.72
2023-01-07T17:20:59.355Z,5.78
2023-01-07T17:23:45.615Z,5.83
2023-01-07T17:26:21.135Z,5.89
2023-01-07T17:28:52.841Z,5.88
2023-01-07T17:31:23.508Z,5.81
2023-01-07T17:33:53.228Z,5.72
2023-01-07T17:36:26.921Z,5.94
2023-01-07T17:38:56.227Z,5.88
2023-01-07T17:41:43.529Z,5.87
2023-01-07T17:44:14.796Z,5.88
2023-01-07T17:46:44.203Z,5.71
2023-01-07T17:49:13.568Z,5.90
2023-01-07T17:51:47.010Z,5.97
2023-01-07T17:54:21.156Z,5.88
2023-01-07T17:56:51.437Z,6.03
2023-01-07T17:59:22.363Z,6.02
2023-01-07T18:01:54.874Z,5.94
2023-01-07T18:04:24.398Z,5.90
2023-01-07T18:06:55.269Z,5.90
2023-01-07T18:09:24.551Z,5.83
2023-01-07T18:12:11.938Z,5.88
2023-01-07T18:14:41.130Z,6.05
2023-01-07T18:17:10.733Z,5.94
2023-01-07T18:19:39.950Z,5.83
2023-01-07T18:22:12.929Z,5.87
2023-01-07T18:24:42.229Z,5.83
2023-01-07T18:27:14.900Z,5.91
2023-01-07T18:29:44.286Z,5.92
2023-01-07T18:32:14.639Z,5.99
2023-01-07T18:34:43.977Z,6.16
2023-01-07T18:37:15.343Z,5.76
2023-01-07T18:39:44.457Z,5.78
2023-01-07T18:42:13.962Z,5.90
2023-01-07T18:44:43.050Z,5.94
2023-01-07T18:47:12.371Z,5.93
2023-01-07T18:49:41.532Z,5.78
2023-01-07T18:52:13.362Z,5.74
2023-01-07T18:54:45.833Z,5.86
2023-01-07T18:57:15.551Z,5.72
2023-01-07T18:59:44.576Z,5.62
2023-01-07T19:02:19.796Z,5.69
2023-01-07T19:04:49.786Z,5.60
2023-01-07T19:07:19.908Z,5.68
2023-01-07T19:09:50.556Z,5.90
2023-01-07T19:12:20.159Z,6.01
2023-01-07T19:14:49.437Z,5.83
2023-01-07T19:17:18.985Z,5.86
2023-01-07T19:19:49.057Z,5.65
2023-01-07T19:22:20.179Z,5.66
2023-01-07T19:24:51.906Z,5.81
2023-01-07T19:27:21.335Z,5.87
2023-01-07T19:29:50.424Z,5.95
2023-01-07T19:32:19.960Z,5.82
2023-01-07T19:34:49.687Z,5.86
2023-01-07T19:37:19.343Z,5.85
2023-01-07T19:39:48.475Z,5.92
2023-01-07T19:42:19.265Z,5.99
2023-01-07T19:44:48.444Z,5.93
2023-01-07T19:47:18.312Z,5.83
2023-01-07T19:49:47.374Z,5.87
2023-01-07T19:52:17.552Z,5.90
2023-01-07T19:54:46.847Z,5.74
2023-01-07T19:57:16.466Z,5.87
2023-01-07T19:59:47.084Z,5.78
2023-01-07T20:02:17.833Z,5.69
2023-01-07T20:04:47.304Z,5.88
2023-01-07T20:07:16.696Z,5.71
2023-01-07T20:09:46.153Z,5.82
2023-01-07T20:12:15.681Z,5.85
2023-01-07T20:14:46.418Z,5.88
2023-01-07T20:17:16.031Z,5.84
2023-01-07T20:19:45.879Z,5.73
2023-01-07T20:22:15.360Z,5.91
2023-01-07T20:24:45.125Z,5.95
2023-01-07T20:27:14.532Z,5.96
2023-01-07T20:29:43.752Z,5.95
2023-01-07T20:32:17.886Z,5.98
2023-01-07T20:34:48.871Z,5.97
2023-01-07T20:37:18.318Z,6.00
2023-01-07T20:39:47.567Z,6.07
2023-01-07T20:42:17.196Z,6.09
2023-01-07T20:44:47.343Z,6.06
2023-01-07T20:47:18.507Z,6.12
2023-01-07T20:49:47.907Z,6.14
2023-01-07T20:52:17.379Z,6.15
2023-01-07T20:54:47.426Z,6.32
2023-01-07T20:57:17.008Z,6.26
2023-01-07T20:59:46.398Z,6.08
2023-01-07T21:02:18.796Z,6.07
2023-01-07T21:04:48.227Z,6.06
2023-01-07T21:07:17.832Z,6.04
2023-01-07T21:09:47.212Z,6.29
2023-01-07T21:12:16.803Z,6.22
2023-01-07T21:14:46.005Z,6.09
2023-01-07T21:17:16.086Z,6.09
2023-01-07T21:19:46.967Z,6.14
2023-01-07T21:22:17.678Z,6.11
2023-01-07T21:24:46.794Z,6.13
2023-01-07T21:27:16.304Z,6.12
2023-01-07T21:29:45.583Z,6.05
2023-01-07T21:32:14.955Z,6.05
2023-01-07T21:34:45.609Z,6.11
2023-01-07T21:37:15.092Z,6.09
2023-01-07T21:39:44.503Z,6.08
2023-01-07T21:42:13.929Z,6.11
2023-01-07T21:44:43.069Z,6.19
2023-01-07T21:47:12.612Z,6.22
2023-01-07T21:49:41.755Z,6.10
2023-01-07T21:52:12.557Z,6.12
2023-01-07T21:54:41.690Z,6.09
2023-01-07T21:57:11.284Z,6.12
2023-01-07T21:59:40.587Z,6.21
2023-01-07T22:02:11.068Z,6.26
2023-01-07T22:04:40.777Z,6.28
2023-01-07T22:07:16.041Z,6.08
2023-01-07T22:09:45.534Z,6.15
2023-01-07T22:12:15.575Z,6.12
2023-01-07T22:14:44.660Z,6.06
2023-01-07T22:17:15.072Z,6.16
2023-01-07T22:19:44.190Z,6.21
2023-01-07T22:22:16.673Z,6.26
2023-01-07T22:24:45.779Z,6.32
2023-01-07T22:27:15.479Z,6.40
2023-01-07T22:29:44.866Z,6.41
2023-01-07T22:32:14.255Z,6.67
2023-01-07T22:34:43.444Z,6.60
2023-01-07T22:37:16.896Z,6.76
2023-01-07T22:39:49.840Z,6.57
2023-01-07T22:42:23.897Z,6.63
2023-01-07T22:44:58.179Z,6.64
2023-01-07T22:47:30.981Z,6.69
2023-01-07T22:50:03.233Z,6.62
2023-01-07T22:52:34.570Z,6.72
2023-01-07T22:55:03.991Z,6.60
2023-01-07T22:57:34.626Z,6.54
2023-01-07T23:00:05.627Z,6.78
2023-01-07T23:02:35.061Z,6.74
2023-01-07T23:05:04.451Z,6.60
2023-01-07T23:07:35.349Z,6.71
2023-01-07T23:10:04.620Z,6.67
2023-01-07T23:12:34.012Z,6.73
2023-01-07T23:15:03.189Z,6.82
2023-01-07T23:17:32.543Z,6.89
2023-01-07T23:20:01.627Z,6.94
2023-01-07T23:22:30.992Z,6.89
2023-01-07T23:25:01.519Z,6.94
2023-01-07T23:27:30.901Z,6.89
2023-01-07T23:30:00.125Z,6.88
2023-01-07T23:32:29.725Z,6.80
2023-01-07T23:34:58.818Z,6.93
2023-01-07T23:37:28.314Z,6.93
2023-01-07T23:39:57.781Z,6.81
2023-01-07T23:42:28.621Z,6.80
2023-01-07T23:44:57.803Z,6.88
2023-01-07T23:47:27.175Z,6.75
2023-01-07T23:49:56.354Z,6.92
2023-01-07T23:52:25.787Z,6.85
2023-01-07T23:54:54.965Z,7.11
2023-01-07T23:57:24.444Z,7.26
2023-01-07T23:59:55.103Z,7.31
